Time;durP1;ratioP1;P1;durP2;ratioP2;P2;SDS_P1;SDS_P2;PMS_P1;PMS_P2;Temp;Humidity;BMP_temperature;BMP_pressure;BME280_temperature;BME280_humidity;BME280_pressure;Samples;Min_cycle;Max_cycle;Signal;HPM_P1;HPM_P2
2022/09/28 00:00:54;;;;;;;0.60;0.60;;;9.30;99.90;;;;;;4954193;28;20043;-81
2022/09/28 00:03:20;;;;;;;0.60;0.60;;;9.30;99.90;;;;;;4981026;28;20044;-80
2022/09/28 00:05:46;;;;;;;0.60;0.60;;;9.20;99.90;;;;;;4987913;28;20043;-81
2022/09/28 00:08:12;;;;;;;0.60;0.60;;;9.30;99.90;;;;;;4980245;28;20040;-81
2022/09/28 00:10:42;;;;;;;0.60;0.60;;;9.40;99.90;;;;;;4985082;28;20045;-81
2022/09/28 00:13:08;;;;;;;0.60;0.60;;;9.40;99.90;;;;;;4976282;28;20246;-81
2022/09/28 00:15:34;;;;;;;0.60;0.60;;;9.40;99.90;;;;;;4978079;28;20040;-81
2022/09/28 00:18:00;;;;;;;0.60;0.60;;;9.40;99.90;;;;;;4976725;28;20055;-80
2022/09/28 00:20:26;;;;;;;0.60;0.60;;;9.40;99.90;;;;;;4982267;28;20048;-81
2022/09/28 00:22:52;;;;;;;0.60;0.60;;;9.40;99.90;;;;;;4966088;28;20398;-81
2022/09/28 00:25:20;;;;;;;0.60;0.60;;;9.40;99.90;;;;;;4979273;28;20154;-81
2022/09/28 00:27:50;;;;;;;0.60;0.60;;;9.30;99.90;;;;;;4972293;28;20175;-81
2022/09/28 00:30:16;;;;;;;0.60;0.60;;;9.30;99.90;;;;;;4976155;28;20838;-81
2022/09/28 00:32:42;;;;;;;0.60;0.60;;;9.20;99.90;;;;;;4981780;28;20574;-81
2022/09/28 00:35:08;;;;;;;0.60;0.60;;;9.30;99.90;;;;;;4966537;28;20048;-81
2022/09/28 00:37:34;;;;;;;0.60;0.60;;;9.40;99.90;;;;;;4981486;28;20072;-81
2022/09/28 00:40:00;;;;;;;0.60;0.60;;;9.30;99.90;;;;;;4984036;28;20504;-81
2022/09/28 00:42:26;;;;;;;0.60;0.60;;;9.30;99.90;;;;;;4979348;28;20413;-81
2022/09/28 00:44:56;;;;;;;0.60;0.60;;;9.30;99.90;;;;;;4973464;27;20692;-81
2022/09/28 00:47:36;;;;;;;0.60;0.60;;;9.40;99.90;;;;;;5025390;27;20115;-81
2022/09/28 00:50:11;;;;;;;0.60;0.60;;;9.20;99.90;;;;;;4992279;27;20390;-81
2022/09/28 00:52:53;;;;;;;0.60;0.60;;;9.30;99.90;;;;;;5027177;27;20032;-81
2022/09/28 00:55:25;;;;;;;0.60;0.60;;;9.30;99.90;;;;;;5011140;27;20379;-81
2022/09/28 00:57:55;;;;;;;0.60;0.60;;;9.30;99.90;;;;;;5005418;27;20050;-82
2022/09/28 01:00:21;;;;;;;0.60;0.60;;;9.20;99.90;;;;;;5008592;27;20150;-82
2022/09/28 01:02:47;;;;;;;0.60;0.60;;;9.20;99.90;;;;;;5008762;27;20058;-81
2022/09/28 01:05:15;;;;;;;0.60;0.60;;;9.20;99.90;;;;;;5007794;27;21017;-81
2022/09/28 01:07:43;;;;;;;0.60;0.60;;;9.20;99.90;;;;;;5002707;27;20035;-81
2022/09/28 01:10:09;;;;;;;0.60;0.60;;;9.10;99.90;;;;;;4987920;27;20642;-81
2022/09/28 01:12:35;;;;;;;0.60;0.60;;;9.10;99.90;;;;;;5010822;27;20050;-81
2022/09/28 01:15:02;;;;;;;0.60;0.60;;;9.00;99.90;;;;;;5010150;27;20075;-81
2022/09/28 01:17:55;;;;;;;0.60;0.60;;;9.00;99.90;;;;;;5001029;27;20047;-81
2022/09/28 01:20:33;;;;;;;0.60;0.60;;;9.10;99.90;;;;;;5005886;27;20055;-81
2022/09/28 01:23:42;;;;;;;0.60;0.60;;;9.20;99.90;;;;;;4989808;27;20058;-81
2022/09/28 01:26:33;;;;;;;0.60;0.60;;;9.10;99.90;;;;;;5017566;27;20047;-80
2022/09/28 01:29:25;;;;;;;0.60;0.60;;;9.20;99.90;;;;;;5006668;27;20556;-80
2022/09/28 01:32:18;;;;;;;0.60;0.60;;;9.00;99.90;;;;;;4996513;27;20061;-82
2022/09/28 01:35:34;;;;;;;0.60;0.60;;;8.90;99.90;;;;;;4974266;27;20059;-84
2022/09/28 01:38:09;;;;;;;0.60;0.60;;;8.90;99.90;;;;;;5008631;27;20821;-80
2022/09/28 01:40:36;;;;;;;0.60;0.60;;;8.80;99.90;;;;;;5013483;27;20043;-80
2022/09/28 01:43:13;;;;;;;0.60;0.60;;;8.80;99.90;;;;;;5000262;27;20191;-81
2022/09/28 01:45:59;;;;;;;0.60;0.60;;;8.80;99.90;;;;;;5018444;27;20047;-81
2022/09/28 01:48:38;;;;;;;0.60;0.60;;;8.80;99.90;;;;;;5032748;27;20047;-80
2022/09/28 01:51:13;;;;;;;0.60;0.60;;;8.70;99.90;;;;;;5012342;27;20051;-81
2022/09/28 01:53:48;;;;;;;0.60;0.60;;;8.70;99.90;;;;;;4999858;27;20305;-81
2022/09/28 01:56:23;;;;;;;0.60;0.60;;;8.70;99.90;;;;;;5003806;27;20055;-81
2022/09/28 01:59:14;;;;;;;0.50;0.50;;;8.80;99.90;;;;;;5007966;27;20467;-82
2022/09/28 02:01:46;;;;;;;0.60;0.60;;;8.70;99.90;;;;;;5004276;27;20849;-81
2022/09/28 02:04:27;;;;;;;0.60;0.60;;;8.70;99.90;;;;;;5009713;27;20891;-81
2022/09/28 02:07:00;;;;;;;0.60;0.60;;;8.60;99.90;;;;;;5004873;27;20379;-82
2022/09/28 02:09:35;;;;;;;0.60;0.60;;;8.60;99.90;;;;;;5006729;27;20051;-81
2022/09/28 02:12:13;;;;;;;0.60;0.60;;;8.50;99.90;;;;;;5000533;27;20488;-82
2022/09/28 02:14:43;;;;;;;0.60;0.60;;;8.50;99.90;;;;;;4998908;27;20109;-81
2022/09/28 02:17:10;;;;;;;0.60;0.60;;;8.30;99.90;;;;;;5000873;27;20150;-81
2022/09/28 02:19:37;;;;;;;0.60;0.60;;;8.40;99.90;;;;;;4985637;27;20905;-83
2022/09/28 02:22:39;;;;;;;0.60;0.60;;;8.40;99.90;;;;;;5018652;27;20718;-83
2022/09/28 02:25:28;;;;;;;0.63;0.63;;;8.40;99.90;;;;;;4980672;27;20075;-81
2022/09/28 02:28:06;;;;;;;0.60;0.60;;;8.30;99.90;;;;;;5009435;27;20046;-82
2022/09/28 02:30:35;;;;;;;0.60;0.60;;;8.30;99.90;;;;;;5007630;27;21080;-80
2022/09/28 02:33:42;;;;;;;0.60;0.60;;;8.30;99.90;;;;;;4981906;27;20046;-81
2022/09/28 02:36:09;;;;;;;0.60;0.60;;;8.30;99.90;;;;;;4923456;28;20503;-80
2022/09/28 02:38:36;;;;;;;0.60;0.60;;;8.20;99.90;;;;;;4921454;28;20506;-80
2022/09/28 02:41:03;;;;;;;0.60;0.60;;;8.20;99.90;;;;;;4981569;27;20963;-82
2022/09/28 02:43:31;;;;;;;0.60;0.60;;;8.10;99.90;;;;;;5019445;28;20126;-82
2022/09/28 02:46:22;;;;;;;0.60;0.60;;;8.30;99.90;;;;;;5024663;27;20059;-81
2022/09/28 02:49:06;;;;;;;0.60;0.60;;;8.30;99.90;;;;;;5011132;27;20546;-81
2022/09/28 02:51:40;;;;;;;0.60;0.60;;;8.20;99.90;;;;;;5029433;27;20150;-80
2022/09/28 02:54:25;;;;;;;0.60;0.60;;;8.30;99.90;;;;;;5027317;27;20072;-81
2022/09/28 02:57:00;;;;;;;0.60;0.60;;;8.10;99.90;;;;;;5017434;27;22101;-81
2022/09/28 03:00:14;;;;;;;0.60;0.60;;;8.10;99.90;;;;;;5008057;27;20614;-81
2022/09/28 03:02:58;;;;;;;0.60;0.60;;;8.00;99.90;;;;;;4994877;27;20069;-81
2022/09/28 03:05:44;;;;;;;0.60;0.60;;;8.10;99.90;;;;;;5021087;27;20491;-81
2022/09/28 03:08:41;;;;;;;0.60;0.60;;;8.10;99.90;;;;;;5026895;27;20501;-81
2022/09/28 03:11:27;;;;;;;0.60;0.60;;;8.20;99.90;;;;;;5004636;27;20047;-82
2022/09/28 03:13:53;;;;;;;0.60;0.60;;;8.20;99.90;;;;;;5024294;27;20184;-82
2022/09/28 03:16:19;;;;;;;0.60;0.60;;;8.30;99.90;;;;;;4985048;28;20081;-82
2022/09/28 03:18:45;;;;;;;0.60;0.60;;;8.20;99.90;;;;;;5002383;27;20138;-82
2022/09/28 03:21:12;;;;;;;0.60;0.60;;;8.30;99.90;;;;;;4988580;27;20845;-81
2022/09/28 03:23:39;;;;;;;0.60;0.60;;;8.40;99.90;;;;;;5012081;27;20051;-81
2022/09/28 03:26:07;;;;;;;0.60;0.60;;;8.50;99.90;;;;;;5002926;28;20122;-81
2022/09/28 03:28:35;;;;;;;0.60;0.60;;;8.50;99.90;;;;;;4999695;27;20150;-80
2022/09/28 03:31:01;;;;;;;0.60;0.60;;;8.50;99.90;;;;;;5021178;27;20053;-82
2022/09/28 03:33:27;;;;;;;0.60;0.60;;;8.50;99.90;;;;;;5030606;27;20043;-82
2022/09/28 03:35:53;;;;;;;0.60;0.60;;;8.50;99.90;;;;;;5005762;27;20055;-82
2022/09/28 03:38:20;;;;;;;0.70;0.70;;;8.50;99.90;;;;;;5001123;27;20079;-81
2022/09/28 03:40:57;;;;;;;0.60;0.60;;;8.50;99.90;;;;;;5007091;27;20723;-82
2022/09/28 03:43:24;;;;;;;0.60;0.60;;;8.50;99.90;;;;;;5009427;27;20520;-82
2022/09/28 03:46:00;;;;;;;0.60;0.60;;;8.60;99.90;;;;;;5003161;27;20077;-82
2022/09/28 03:48:32;;;;;;;0.60;0.60;;;8.60;99.90;;;;;;5001580;27;20055;-82
2022/09/28 03:51:00;;;;;;;0.60;0.60;;;8.60;99.90;;;;;;5002104;27;20082;-82
2022/09/28 03:53:28;;;;;;;0.60;0.60;;;8.50;99.90;;;;;;4999285;27;20092;-82
2022/09/28 03:55:55;;;;;;;0.60;0.60;;;8.50;99.90;;;;;;5003250;28;20135;-82
2022/09/28 03:58:21;;;;;;;0.60;0.60;;;8.60;99.90;;;;;;5018699;27;20048;-82
2022/09/28 04:00:48;;;;;;;0.60;0.60;;;8.60;99.90;;;;;;5006057;28;20741;-83
2022/09/28 04:03:15;;;;;;;0.60;0.60;;;8.50;99.90;;;;;;5002045;28;20043;-82
2022/09/28 04:05:51;;;;;;;0.60;0.60;;;8.50;99.90;;;;;;5001697;27;20062;-83
2022/09/28 04:08:17;;;;;;;0.60;0.60;;;8.50;99.90;;;;;;5011155;28;20054;-84
2022/09/28 04:10:43;;;;;;;0.60;0.60;;;8.60;99.90;;;;;;4998729;27;20471;-83
2022/09/28 04:13:10;;;;;;;0.60;0.60;;;8.60;99.90;;;;;;5009483;28;20046;-83
2022/09/28 04:15:37;;;;;;;0.60;0.60;;;8.50;99.90;;;;;;4998596;27;20039;-82
2022/09/28 04:18:12;;;;;;;0.60;0.60;;;8.40;99.90;;;;;;5019112;28;20096;-82
2022/09/28 04:20:44;;;;;;;0.60;0.60;;;8.50;99.90;;;;;;4995721;28;20465;-83
2022/09/28 04:23:11;;;;;;;0.60;0.60;;;8.60;99.90;;;;;;5015803;28;20888;-82
2022/09/28 04:25:38;;;;;;;0.60;0.60;;;8.60;99.90;;;;;;5024117;28;20089;-83
2022/09/28 04:30:48;;;;;;;0.60;0.60;;;8.60;99.90;;;;;;5019087;28;20043;-82
2022/09/28 04:33:14;;;;;;;0.65;0.65;;;8.60;99.90;;;;;;5000894;27;20279;-83
2022/09/28 04:35:40;;;;;;;0.60;0.60;;;8.50;99.90;;;;;;5005075;27;21224;-82
2022/09/28 04:38:06;;;;;;;0.60;0.60;;;8.40;99.90;;;;;;5005129;27;20048;-82
2022/09/28 04:40:32;;;;;;;0.90;0.90;;;8.50;99.90;;;;;;5024132;27;20044;-82
2022/09/28 04:42:58;;;;;;;0.70;0.70;;;8.50;99.90;;;;;;5017125;28;20152;-82
2022/09/28 04:45:27;;;;;;;0.60;0.60;;;8.50;99.90;;;;;;5014600;27;20067;-83
2022/09/28 04:47:53;;;;;;;0.70;0.70;;;8.60;99.90;;;;;;5014649;28;20922;-83
2022/09/28 04:50:19;;;;;;;0.60;0.60;;;8.60;99.90;;;;;;5007006;28;20062;-84
2022/09/28 04:52:45;;;;;;;0.60;0.60;;;8.70;99.90;;;;;;5002598;28;20446;-83
2022/09/28 04:55:12;;;;;;;0.60;0.60;;;8.70;99.90;;;;;;5000267;28;20100;-82
2022/09/28 04:57:38;;;;;;;0.60;0.60;;;8.70;99.90;;;;;;4985541;28;20051;-82
2022/09/28 05:00:05;;;;;;;0.60;0.60;;;8.70;99.90;;;;;;4999658;27;20503;-82
2022/09/28 05:02:31;;;;;;;0.60;0.60;;;8.80;99.90;;;;;;5000082;28;20086;-82
2022/09/28 05:04:57;;;;;;;0.60;0.60;;;8.80;99.90;;;;;;5017809;27;20937;-82
2022/09/28 05:07:25;;;;;;;0.60;0.60;;;8.80;99.90;;;;;;5020559;27;20109;-83
2022/09/28 05:09:51;;;;;;;0.60;0.60;;;8.70;99.90;;;;;;4999359;28;20158;-83
2022/09/28 05:12:17;;;;;;;0.60;0.60;;;8.70;99.90;;;;;;4998259;28;20046;-84
2022/09/28 05:14:42;;;;;;;0.60;0.60;;;8.70;99.90;;;;;;4999389;28;20035;-82
2022/09/28 05:17:21;;;;;;;0.60;0.60;;;8.70;99.90;;;;;;4999573;28;20377;-82
2022/09/28 05:19:47;;;;;;;0.60;0.60;;;8.70;99.90;;;;;;4998999;27;20048;-84
2022/09/28 05:22:14;;;;;;;0.68;0.68;;;8.70;99.90;;;;;;5003908;27;20043;-84
2022/09/28 05:24:40;;;;;;;0.60;0.60;;;8.60;99.90;;;;;;5006797;27;20054;-84
2022/09/28 05:27:06;;;;;;;0.60;0.60;;;8.60;99.90;;;;;;4990599;27;20272;-83
2022/09/28 05:29:32;;;;;;;0.60;0.60;;;8.70;99.90;;;;;;5003867;27;20078;-83
2022/09/28 05:32:00;;;;;;;0.60;0.60;;;8.70;99.90;;;;;;5021205;27;20447;-83
2022/09/28 05:34:26;;;;;;;0.60;0.60;;;8.70;99.90;;;;;;4997955;27;20043;-83
2022/09/28 05:36:52;;;;;;;0.70;0.70;;;8.70;99.90;;;;;;5026170;27;20567;-83
2022/09/28 05:39:18;;;;;;;0.60;0.60;;;8.70;99.90;;;;;;5003625;27;20138;-83
2022/09/28 05:41:43;;;;;;;0.60;0.60;;;8.70;99.90;;;;;;5018046;27;20080;-82
2022/09/28 05:44:09;;;;;;;0.60;0.60;;;8.70;99.90;;;;;;5018837;27;20075;-83
2022/09/28 05:46:35;;;;;;;0.60;0.60;;;8.70;99.90;;;;;;5005326;27;20051;-83
2022/09/28 05:49:02;;;;;;;0.60;0.60;;;8.60;99.90;;;;;;5001503;27;20485;-82
2022/09/28 05:51:27;;;;;;;0.60;0.60;;;8.60;99.90;;;;;;5013315;27;20468;-82
2022/09/28 05:53:54;;;;;;;0.60;0.60;;;8.60;99.90;;;;;;5020131;27;20911;-84
2022/09/28 05:56:20;;;;;;;0.60;0.60;;;8.50;99.90;;;;;;5006215;27;20798;-84
2022/09/28 05:58:46;;;;;;;0.60;0.60;;;8.50;99.90;;;;;;5025570;27;20047;-84
2022/09/28 06:01:12;;;;;;;0.60;0.60;;;8.50;99.90;;;;;;5011081;27;20665;-86
2022/09/28 06:03:38;;;;;;;0.60;0.60;;;8.50;99.90;;;;;;4988184;27;20081;-84
2022/09/28 06:06:04;;;;;;;0.60;0.60;;;8.50;99.90;;;;;;4978793;27;20488;-82
2022/09/28 06:08:34;;;;;;;0.60;0.60;;;8.50;99.90;;;;;;5004564;27;20051;-82
2022/09/28 06:11:00;;;;;;;0.60;0.60;;;8.50;99.90;;;;;;5007073;27;20249;-82
2022/09/28 06:13:27;;;;;;;0.60;0.60;;;8.60;99.90;;;;;;4994347;28;20125;-83
2022/09/28 06:15:53;;;;;;;0.60;0.60;;;8.60;99.90;;;;;;4992174;27;20696;-83
2022/09/28 06:18:20;;;;;;;0.60;0.60;;;8.60;99.90;;;;;;4999890;28;20678;-84
2022/09/28 06:20:46;;;;;;;0.60;0.60;;;8.70;99.90;;;;;;5005690;28;20043;-81
2022/09/28 06:23:12;;;;;;;0.60;0.60;;;8.70;99.90;;;;;;4996255;27;20039;-84
2022/09/28 06:25:39;;;;;;;0.60;0.60;;;8.70;99.90;;;;;;4992964;27;20058;-84
2022/09/28 06:28:09;;;;;;;0.60;0.60;;;8.70;99.90;;;;;;5008427;27;20431;-84
2022/09/28 06:30:37;;;;;;;0.60;0.60;;;8.70;99.90;;;;;;5011894;27;20462;-81
2022/09/28 06:33:05;;;;;;;0.60;0.60;;;8.70;99.90;;;;;;5003509;27;20913;-81
2022/09/28 06:35:31;;;;;;;0.60;0.60;;;8.70;99.90;;;;;;5008663;27;20884;-82
2022/09/28 06:37:58;;;;;;;0.60;0.60;;;8.70;99.90;;;;;;5008103;27;20039;-84
2022/09/28 06:40:25;;;;;;;0.60;0.60;;;8.60;99.90;;;;;;5005827;28;20066;-84
2022/09/28 06:42:58;;;;;;;0.60;0.60;;;8.70;99.90;;;;;;5003867;27;20051;-82
2022/09/28 06:45:25;;;;;;;0.60;0.60;;;8.60;99.90;;;;;;5026756;27;20246;-84
2022/09/28 06:47:57;;;;;;;0.60;0.60;;;8.70;99.90;;;;;;5013712;27;20073;-85
2022/09/28 06:50:25;;;;;;;0.60;0.60;;;8.70;99.90;;;;;;5011115;28;20124;-84
2022/09/28 06:52:52;;;;;;;0.60;0.60;;;8.70;99.90;;;;;;5010978;27;20046;-83
2022/09/28 06:55:19;;;;;;;0.60;0.60;;;8.70;99.90;;;;;;5002341;27;20799;-82
2022/09/28 06:57:45;;;;;;;0.60;0.60;;;8.70;99.90;;;;;;5003675;27;20084;-83
2022/09/28 07:00:12;;;;;;;0.60;0.60;;;8.80;99.90;;;;;;5002740;27;20531;-81
2022/09/28 07:02:37;;;;;;;0.60;0.60;;;8.80;99.90;;;;;;4978806;27;20907;-82
2022/09/28 07:05:07;;;;;;;0.60;0.60;;;8.80;99.90;;;;;;5001962;27;20040;-83
2022/09/28 07:07:33;;;;;;;0.60;0.60;;;8.80;99.90;;;;;;5002040;27;20092;-83
2022/09/28 07:09:58;;;;;;;0.60;0.60;;;8.80;99.90;;;;;;5017672;27;20047;-83
2022/09/28 07:12:25;;;;;;;0.60;0.60;;;8.90;99.90;;;;;;5002940;27;20040;-82
2022/09/28 07:14:56;;;;;;;0.60;0.60;;;8.90;99.90;;;;;;5009022;27;20406;-82
2022/09/28 07:17:22;;;;;;;0.60;0.60;;;8.90;99.90;;;;;;5009442;27;20129;-82
2022/09/28 07:19:52;;;;;;;0.60;0.60;;;8.90;99.90;;;;;;5006466;27;20744;-81
2022/09/28 07:22:19;;;;;;;0.60;0.60;;;9.00;99.90;;;;;;5016066;27;21047;-81
2022/09/28 07:24:46;;;;;;;0.60;0.60;;;9.10;99.90;;;;;;5002382;27;20275;-81
2022/09/28 07:27:27;;;;;;;0.60;0.60;;;9.00;99.90;;;;;;5004186;27;20047;-82
2022/09/28 07:29:54;;;;;;;0.60;0.60;;;9.00;99.90;;;;;;5024907;27;20081;-82
2022/09/28 07:32:20;;;;;;;0.60;0.60;;;9.00;99.90;;;;;;4986986;27;20039;-84
2022/09/28 07:34:47;;;;;;;0.60;0.60;;;8.90;99.90;;;;;;5009820;27;20042;-82
2022/09/28 07:37:14;;;;;;;0.60;0.60;;;8.90;99.90;;;;;;5020813;27;20048;-81
2022/09/28 07:42:28;;;;;;;0.60;0.60;;;9.20;99.90;;;;;;5009251;27;20442;-82
2022/09/28 07:44:55;;;;;;;0.60;0.60;;;9.20;99.90;;;;;;4996354;28;20040;-83
2022/09/28 07:47:27;;;;;;;0.60;0.60;;;9.20;99.90;;;;;;5017914;27;20895;-82
2022/09/28 07:49:57;;;;;;;0.60;0.60;;;9.20;99.90;;;;;;4999463;27;20054;-81
2022/09/28 07:52:25;;;;;;;0.60;0.60;;;9.20;99.90;;;;;;5008527;27;20508;-82
2022/09/28 07:54:54;;;;;;;0.60;0.60;;;9.30;99.90;;;;;;5014309;28;20373;-82
2022/09/28 07:57:21;;;;;;;0.60;0.60;;;9.30;99.90;;;;;;5000441;27;20043;-82
2022/09/28 07:59:48;;;;;;;0.60;0.60;;;9.30;99.90;;;;;;5011458;27;20789;-82
2022/09/28 08:02:19;;;;;;;0.60;0.60;;;9.40;99.90;;;;;;5006501;28;20043;-83
2022/09/28 08:04:49;;;;;;;0.60;0.60;;;9.50;99.90;;;;;;4998425;27;20142;-81
2022/09/28 08:07:17;;;;;;;0.60;0.60;;;9.50;99.90;;;;;;4986286;27;20079;-83
2022/09/28 08:09:44;;;;;;;0.60;0.60;;;9.50;99.90;;;;;;4998562;27;20757;-81
2022/09/28 08:12:11;;;;;;;0.60;0.60;;;9.70;99.90;;;;;;5006441;27;20176;-82
2022/09/28 08:14:43;;;;;;;0.60;0.60;;;9.70;99.90;;;;;;5024313;27;20468;-81
2022/09/28 08:17:09;;;;;;;0.60;0.60;;;9.60;99.90;;;;;;5004510;27;20113;-81
2022/09/28 08:22:19;;;;;;;;;;;9.60;99.90;;;;;;5010422;28;20392;-82
2022/09/28 08:24:46;;;;;;;0.60;0.60;;;9.70;99.90;;;;;;4999361;28;20147;-82
2022/09/28 08:27:13;;;;;;;0.60;0.60;;;9.80;99.90;;;;;;4994814;28;20085;-82
2022/09/28 08:29:40;;;;;;;0.60;0.60;;;9.80;99.90;;;;;;5005023;28;20055;-81
2022/09/28 08:32:07;;;;;;;0.60;0.60;;;9.80;99.90;;;;;;5023642;28;21043;-82
2022/09/28 08:34:38;;;;;;;0.60;0.60;;;9.90;99.90;;;;;;5023869;28;20151;-81
2022/09/28 08:37:05;;;;;;;0.60;0.60;;;9.90;99.90;;;;;;4996115;28;20150;-81
2022/09/28 08:39:33;;;;;;;0.60;0.60;;;10.00;99.90;;;;;;5018900;28;20092;-81
2022/09/28 08:42:20;;;;;;;0.60;0.60;;;10.10;99.90;;;;;;5027093;28;20446;-80
2022/09/28 08:44:56;;;;;;;0.60;0.60;;;10.10;99.90;;;;;;5004265;28;20057;-81
2022/09/28 08:50:53;;;;;;;;;;;10.10;99.90;;;;;;5000321;28;20044;-80
2022/09/28 08:53:44;;;;;;;0.60;0.60;;;10.10;99.90;;;;;;5002561;28;19930;-81
2022/09/28 08:56:25;;;;;;;0.60;0.60;;;10.20;99.90;;;;;;4999385;27;20674;-82
2022/09/28 08:59:01;;;;;;;0.57;0.57;;;10.30;99.90;;;;;;5006604;28;20464;-81
2022/09/28 09:01:36;;;;;;;0.60;0.60;;;10.30;99.90;;;;;;5010564;28;20547;-80
2022/09/28 09:04:04;;;;;;;0.60;0.60;;;10.50;99.90;;;;;;5011313;27;20723;-81
2022/09/28 09:06:49;;;;;;;0.60;0.60;;;10.50;99.90;;;;;;5007830;27;20790;-81
2022/09/28 09:09:39;;;;;;;0.60;0.60;;;10.50;99.90;;;;;;5009539;27;20047;-81
2022/09/28 09:12:17;;;;;;;0.60;0.60;;;10.70;99.90;;;;;;5028694;27;20051;-81
2022/09/28 09:15:12;;;;;;;0.60;0.60;;;10.80;99.90;;;;;;5005596;27;20047;-81
2022/09/28 09:18:15;;;;;;;0.55;0.55;;;11.00;99.90;;;;;;5002803;27;20417;-81
2022/09/28 09:20:50;;;;;;;0.50;0.50;;;11.00;99.90;;;;;;5001365;27;20979;-82
2022/09/28 09:23:36;;;;;;;0.60;0.60;;;11.20;99.90;;;;;;5010787;28;20047;-81
2022/09/28 09:26:38;;;;;;;0.60;0.60;;;11.20;99.90;;;;;;5024729;27;20554;-82
2022/09/28 09:29:16;;;;;;;0.60;0.60;;;11.70;99.90;;;;;;4998189;27;20050;-81
2022/09/28 09:32:12;;;;;;;0.60;0.60;;;11.70;99.90;;;;;;5018082;27;20094;-81
2022/09/28 09:34:47;;;;;;;0.60;0.60;;;11.90;99.90;;;;;;4994342;27;20670;-80
2022/09/28 09:37:23;;;;;;;0.60;0.60;;;11.90;99.90;;;;;;5020843;27;20453;-81
2022/09/28 09:40:01;;;;;;;0.60;0.60;;;11.90;99.90;;;;;;5005719;28;20047;-80
2022/09/28 09:42:55;;;;;;;0.50;0.50;;;12.60;99.90;;;;;;5014412;27;20059;-80
2022/09/28 09:45:35;;;;;;;0.57;0.57;;;13.00;99.90;;;;;;5019740;27;20860;-81
2022/09/28 09:48:17;;;;;;;0.50;0.50;;;13.20;99.90;;;;;;4981838;27;20510;-80
2022/09/28 09:51:10;;;;;;;0.50;0.50;;;13.40;99.90;;;;;;5008573;27;20051;-80
2022/09/28 09:53:48;;;;;;;0.50;0.50;;;13.30;99.90;;;;;;5003217;27;20060;-82
2022/09/28 09:56:20;;;;;;;0.50;0.50;;;13.20;99.90;;;;;;5022549;27;20157;-82
2022/09/28 09:58:52;;;;;;;0.50;0.50;;;13.30;99.90;;;;;;5004477;27;20587;-81
2022/09/28 10:01:22;;;;;;;0.50;0.50;;;13.20;99.90;;;;;;5005228;28;20094;-81
2022/09/28 10:03:48;;;;;;;0.50;0.50;;;13.20;99.90;;;;;;5025881;27;20047;-81
2022/09/28 10:06:26;;;;;;;0.50;0.50;;;13.50;99.90;;;;;;5005318;27;20040;-81
2022/09/28 10:08:59;;;;;;;0.50;0.50;;;13.60;99.90;;;;;;5026285;27;20047;-83
2022/09/28 10:11:30;;;;;;;0.50;0.50;;;13.70;99.90;;;;;;4986338;27;20107;-82
2022/09/28 10:13:56;;;;;;;0.50;0.50;;;13.70;99.90;;;;;;5006724;27;20051;-81
2022/09/28 10:16:23;;;;;;;0.50;0.50;;;13.70;99.90;;;;;;5029457;27;20507;-82
2022/09/28 10:18:49;;;;;;;0.50;0.50;;;13.80;99.90;;;;;;5012519;27;20410;-81
2022/09/28 10:21:19;;;;;;;0.50;0.50;;;14.00;99.90;;;;;;5015470;27;20036;-81
2022/09/28 10:23:47;;;;;;;0.50;0.50;;;14.30;99.90;;;;;;5026282;27;20052;-81
2022/09/28 10:26:27;;;;;;;0.50;0.50;;;14.40;99.90;;;;;;5009537;27;20155;-81
2022/09/28 10:29:00;;;;;;;0.50;0.50;;;14.60;99.90;;;;;;5010693;27;20040;-81
2022/09/28 10:31:34;;;;;;;0.50;0.50;;;14.40;99.90;;;;;;5001466;27;20047;-78
2022/09/28 10:34:00;;;;;;;0.50;0.50;;;14.00;99.90;;;;;;5008185;27;20551;-78
2022/09/28 10:36:27;;;;;;;0.50;0.50;;;14.20;99.90;;;;;;5006002;27;20624;-79
2022/09/28 10:38:54;;;;;;;0.40;0.40;;;14.40;99.90;;;;;;5009703;27;20784;-79
2022/09/28 10:41:21;;;;;;;0.50;0.50;;;14.60;99.90;;;;;;5018433;27;20523;-79
2022/09/28 10:44:05;;;;;;;0.45;0.45;;;14.90;99.90;;;;;;5017847;27;20676;-80
2022/09/28 10:46:33;;;;;;;0.47;0.47;;;14.80;99.90;;;;;;5002978;27;20492;-79
2022/09/28 10:49:02;;;;;;;0.50;0.50;;;14.60;99.90;;;;;;5004047;27;20133;-81
2022/09/28 10:51:53;;;;;;;0.50;0.50;;;14.60;99.90;;;;;;4999966;27;20509;-79
2022/09/28 10:54:30;;;;;;;0.40;0.40;;;14.90;99.90;;;;;;5006764;27;20051;-81
2022/09/28 10:56:58;;;;;;;0.40;0.40;;;15.30;99.90;;;;;;5021781;27;20055;-79
2022/09/28 10:59:29;;;;;;;0.40;0.40;;;15.80;99.90;;;;;;5024686;27;20333;-79
2022/09/28 11:02:23;;;;;;;0.40;0.40;;;15.80;99.90;;;;;;5001388;27;20101;-79
2022/09/28 11:05:18;;;;;;;0.40;0.40;;;16.00;99.90;;;;;;5000958;27;20043;-79
2022/09/28 11:07:46;;;;;;;0.50;0.50;;;15.70;99.90;;;;;;5020006;27;20221;-79
2022/09/28 11:10:25;;;;;;;0.40;0.40;;;15.90;99.90;;;;;;5005079;27;20454;-79
2022/09/28 11:12:52;;;;;;;0.40;0.40;;;15.70;99.90;;;;;;5002944;27;20118;-79
2022/09/28 11:15:27;;;;;;;0.40;0.40;;;16.10;99.90;;;;;;5005249;27;20051;-79
2022/09/28 11:17:53;;;;;;;0.50;0.50;;;16.50;99.90;;;;;;5002686;27;20461;-80
2022/09/28 11:20:25;;;;;;;0.43;0.43;;;16.70;99.90;;;;;;5004473;27;20047;-81
2022/09/28 11:23:29;;;;;;;0.40;0.40;;;16.40;99.90;;;;;;5018472;27;20090;-80
2022/09/28 11:26:06;;;;;;;0.40;0.40;;;16.30;99.90;;;;;;5014084;27;20571;-79
2022/09/28 11:28:37;;;;;;;0.47;0.47;;;16.10;99.90;;;;;;5029950;27;20189;-80
2022/09/28 11:31:06;;;;;;;0.50;0.50;;;15.50;99.90;;;;;;5001940;27;20437;-82
2022/09/28 11:33:38;;;;;;;0.40;0.40;;;15.10;99.90;;;;;;5010357;28;20459;-80
2022/09/28 11:36:17;;;;;;;0.50;0.50;;;14.90;99.90;;;;;;5012549;27;20117;-79
2022/09/28 11:39:10;;;;;;;0.40;0.40;;;14.70;99.90;;;;;;5027740;27;20047;-79
2022/09/28 11:42:03;;;;;;;0.40;0.40;;;14.90;99.90;;;;;;5002857;27;20536;-79
2022/09/28 11:44:45;;;;;;;0.40;0.40;;;15.10;99.90;;;;;;5014827;27;20043;-80
2022/09/28 11:47:30;;;;;;;0.40;0.40;;;15.30;99.90;;;;;;5020947;27;20454;-79
2022/09/28 11:50:06;;;;;;;0.40;0.40;;;15.80;99.90;;;;;;5021733;27;20049;-80
2022/09/28 11:53:16;;;;;;;0.50;0.50;;;15.30;99.90;;;;;;4999710;27;20047;-81
2022/09/28 11:56:10;;;;;;;0.50;0.50;;;14.90;99.90;;;;;;4997524;27;20048;-80
2022/09/28 11:58:46;;;;;;;0.45;0.45;;;14.70;99.90;;;;;;5007555;27;20066;-80
2022/09/28 12:01:34;;;;;;;0.40;0.40;;;15.00;99.90;;;;;;5020575;27;20150;-79
2022/09/28 12:04:07;;;;;;;0.40;0.40;;;15.40;99.90;;;;;;5001421;27;20051;-79
2022/09/28 12:06:58;;;;;;;0.50;0.50;;;15.90;99.90;;;;;;5005025;28;20039;-78
2022/09/28 12:09:37;;;;;;;0.50;0.50;;;16.40;99.90;;;;;;5020150;27;20297;-79
2022/09/28 12:12:32;;;;;;;0.50;0.50;;;16.60;99.90;;;;;;5004690;27;20449;-78
2022/09/28 12:15:03;;;;;;;0.50;0.50;;;16.90;99.90;;;;;;4998823;27;20073;-80
2022/09/28 12:17:45;;;;;;;0.40;0.40;;;17.20;99.90;;;;;;5003822;28;20058;-80
2022/09/28 12:20:29;;;;;;;0.40;0.40;;;17.10;99.90;;;;;;5017353;27;20035;-80
2022/09/28 12:23:04;;;;;;;0.50;0.50;;;17.10;99.90;;;;;;5007062;28;20561;-82
2022/09/28 12:25:38;;;;;;;0.43;0.43;;;17.30;99.90;;;;;;5005938;28;20704;-79
2022/09/28 12:28:17;;;;;;;0.50;0.50;;;17.50;99.90;;;;;;5023533;28;20047;-80
2022/09/28 12:30:46;;;;;;;0.47;0.47;;;17.60;99.90;;;;;;5002476;27;20051;-79
2022/09/28 12:33:16;;;;;;;0.50;0.50;;;17.60;99.90;;;;;;5002390;27;20846;-80
2022/09/28 12:36:03;;;;;;;0.45;0.45;;;18.10;99.90;;;;;;5002219;27;20077;-80
2022/09/28 12:39:06;;;;;;;0.40;0.40;;;18.00;99.90;;;;;;5002281;27;20424;-80
2022/09/28 12:41:35;;;;;;;0.40;0.40;;;18.20;99.90;;;;;;5024766;27;20054;-80
2022/09/28 12:44:37;;;;;;;0.50;0.50;;;18.40;99.90;;;;;;5023769;27;20139;-80
2022/09/28 12:47:35;;;;;;;0.43;0.43;;;18.50;99.90;;;;;;4970137;27;20848;-80
2022/09/28 12:50:06;;;;;;;0.50;0.50;;;17.90;99.90;;;;;;5008243;28;20440;-81
2022/09/28 12:52:40;;;;;;;0.40;0.40;;;17.40;99.90;;;;;;5023297;27;20043;-80
2022/09/28 12:55:07;;;;;;;0.40;0.40;;;17.10;99.90;;;;;;5011760;27;20163;-78
2022/09/28 12:57:43;;;;;;;0.40;0.40;;;16.90;99.90;;;;;;5020781;27;20043;-81
2022/09/28 13:00:21;;;;;;;0.50;0.50;;;16.80;99.90;;;;;;5013836;27;20047;-80
2022/09/28 13:03:07;;;;;;;0.50;0.50;;;16.50;99.90;;;;;;5023847;27;20059;-80
2022/09/28 13:06:04;;;;;;;0.50;0.50;;;16.10;99.90;;;;;;4995381;27;20512;-80
2022/09/28 13:09:07;;;;;;;0.40;0.40;;;15.80;99.90;;;;;;5026379;27;20888;-80
2022/09/28 13:11:44;;;;;;;0.50;0.50;;;15.80;99.90;;;;;;5002775;27;20831;-80
2022/09/28 13:14:36;;;;;;;0.40;0.40;;;16.00;99.90;;;;;;5007308;27;20396;-79
2022/09/28 13:17:13;;;;;;;0.40;0.40;;;15.80;99.90;;;;;;5005012;27;20246;-79
2022/09/28 13:19:53;;;;;;;0.50;0.50;;;15.90;99.90;;;;;;4997807;27;20047;-80
2022/09/28 13:22:31;;;;;;;0.50;0.50;;;15.90;99.90;;;;;;5023417;27;20040;-78
2022/09/28 13:25:03;;;;;;;0.40;0.40;;;15.90;99.90;;;;;;5001480;27;20046;-79
2022/09/28 13:27:35;;;;;;;0.50;0.50;;;15.70;99.90;;;;;;5029208;27;20043;-79
2022/09/28 13:30:05;;;;;;;0.40;0.40;;;15.50;99.90;;;;;;5009123;27;20051;-78
2022/09/28 13:32:32;;;;;;;0.50;0.50;;;15.40;99.90;;;;;;5022835;27;20440;-79
2022/09/28 13:35:01;;;;;;;0.40;0.40;;;15.30;99.90;;;;;;5014420;27;20586;-78
2022/09/28 13:37:27;;;;;;;0.40;0.40;;;15.10;99.90;;;;;;5008185;27;20069;-78